createdAt,value
2022-09-10T00:04:47.205Z,7.28
2022-09-10T00:09:54.150Z,7.13
2022-09-10T00:14:59.434Z,6.22
2022-09-10T00:20:05.521Z,6.97
2022-09-10T00:25:12.759Z,6.78
2022-09-10T00:30:18.511Z,7.57
2022-09-10T00:35:24.565Z,5.80
2022-09-10T00:40:31.995Z,6.03
2022-09-10T00:45:42.470Z,5.72
2022-09-10T00:50:50.283Z,6.13
2022-09-10T00:55:59.005Z,6.13
2022-09-10T01:01:05.727Z,5.88
2022-09-10T01:06:11.629Z,5.60
2022-09-10T01:11:43.289Z,5.63
2022-09-10T01:16:53.346Z,6.18
2022-09-10T01:22:05.771Z,5.65
2022-09-10T01:27:38.573Z,5.20
2022-09-10T01:33:04.738Z,4.80
2022-09-10T01:38:17.177Z,4.57
2022-09-10T01:43:27.857Z,4.53
2022-09-10T01:49:00.125Z,3.95
2022-09-10T01:54:20.281Z,4.13
2022-09-10T01:59:34.691Z,3.65
2022-09-10T02:04:40.457Z,5.03
2022-09-10T02:09:46.586Z,3.60
2022-09-10T02:14:55.578Z,3.22
2022-09-10T02:20:20.570Z,3.40
2022-09-10T02:25:26.663Z,3.30
2022-09-10T02:30:36.824Z,2.80
2022-09-10T02:35:42.515Z,3.58
2022-09-10T02:40:49.892Z,3.63
2022-09-10T02:45:58.958Z,3.50
2022-09-10T02:56:09.559Z,3.40
2022-09-10T03:01:20.501Z,3.33
2022-09-10T03:06:37.252Z,3.65
2022-09-10T03:11:43.240Z,2.95
2022-09-10T03:16:50.747Z,2.95
2022-09-10T03:21:56.236Z,3.88
2022-09-10T03:27:01.668Z,3.22
2022-09-10T03:32:09.105Z,3.33
2022-09-10T03:37:14.599Z,3.42
2022-09-10T03:42:20.606Z,4.32
2022-09-10T03:47:27.551Z,3.60
2022-09-10T03:52:33.432Z,3.10
2022-09-10T03:57:41.839Z,3.75
2022-09-10T04:02:48.678Z,3.80
2022-09-10T04:07:55.500Z,4.00
2022-09-10T04:13:01.154Z,3.42
2022-09-10T04:18:11.885Z,3.75
2022-09-10T04:23:18.230Z,3.70
2022-09-10T04:28:25.624Z,4.05
2022-09-10T04:33:33.987Z,4.03
2022-09-10T04:38:42.368Z,4.40
2022-09-10T04:43:51.003Z,4.18
2022-09-10T04:48:59.368Z,4.85
2022-09-10T04:54:05.391Z,5.20
2022-09-10T04:59:14.794Z,4.85
2022-09-10T05:04:24.238Z,5.03
2022-09-10T05:09:31.947Z,4.27
2022-09-10T05:14:39.852Z,5.05
2022-09-10T05:19:48.684Z,4.22
2022-09-10T05:24:55.645Z,5.18
2022-09-10T05:30:02.359Z,5.15
2022-09-10T05:35:11.716Z,4.78
2022-09-10T05:40:21.539Z,4.63
2022-09-10T05:45:28.615Z,4.38
2022-09-10T05:50:38.746Z,5.10
2022-09-10T06:00:52.030Z,4.97
2022-09-10T06:06:01.222Z,4.78
2022-09-10T06:11:12.367Z,4.35
2022-09-10T06:16:22.682Z,5.20
2022-09-10T06:21:30.717Z,5.75
2022-09-10T06:26:37.406Z,4.60
2022-09-10T06:31:49.972Z,5.28
2022-09-10T06:36:58.622Z,5.40
2022-09-10T06:42:06.993Z,4.65
2022-09-10T06:48:12.834Z,5.40
2022-09-10T06:53:00.114Z,5.68
2022-09-10T06:58:05.955Z,5.13
2022-09-10T07:03:17.156Z,5.65
2022-09-10T07:08:25.744Z,6.25
2022-09-10T07:13:34.368Z,4.80
2022-09-10T07:18:41.811Z,6.15
2022-09-10T07:23:52.079Z,5.50
2022-09-10T07:28:58.997Z,6.45
2022-09-10T07:34:06.096Z,5.38
2022-09-10T07:39:13.875Z,5.95
2022-09-10T07:44:21.273Z,5.25
2022-09-10T07:49:28.251Z,5.15
2022-09-10T07:54:36.495Z,5.70
2022-09-10T07:59:44.022Z,5.68
2022-09-10T08:04:53.074Z,5.35
2022-09-10T08:10:00.230Z,4.53
2022-09-10T08:15:06.657Z,5.25
2022-09-10T08:20:13.810Z,5.28
2022-09-10T08:25:23.881Z,4.82
2022-09-10T08:30:30.755Z,4.20
2022-09-10T08:35:38.109Z,4.07
2022-09-10T08:40:45.805Z,4.15
2022-09-10T08:45:53.002Z,4.00
2022-09-10T08:51:01.201Z,5.30
2022-09-10T08:56:13.151Z,4.05
2022-09-10T09:01:27.216Z,3.97
2022-09-10T09:06:37.899Z,4.47
2022-09-10T09:11:51.098Z,4.68
2022-09-10T09:17:11.478Z,3.70
2022-09-10T09:22:21.510Z,4.25
2022-09-10T09:27:35.151Z,5.00
2022-09-10T09:32:44.378Z,4.03
2022-09-10T09:43:00.741Z,4.65
2022-09-10T09:48:07.903Z,5.63
2022-09-10T09:53:19.261Z,5.43
2022-09-10T09:58:37.754Z,4.93
2022-09-10T10:03:58.986Z,4.90
2022-09-10T10:09:06.829Z,6.20
2022-09-10T10:14:26.321Z,6.95
2022-09-10T10:19:37.034Z,5.32
2022-09-10T10:24:44.007Z,4.05
2022-09-10T10:30:02.533Z,3.95
2022-09-10T10:35:23.596Z,4.53
2022-09-10T10:40:33.978Z,4.65
2022-09-10T10:45:56.177Z,4.53
2022-09-10T10:51:15.475Z,4.75
2022-09-10T10:56:29.901Z,4.57
2022-09-10T11:01:41.856Z,4.93
2022-09-10T11:06:49.192Z,5.35
2022-09-10T11:11:58.138Z,5.60
2022-09-10T11:17:10.523Z,5.03
2022-09-10T11:22:19.084Z,5.25
2022-09-10T11:27:27.414Z,4.70
2022-09-10T11:32:38.582Z,4.90
2022-09-10T11:37:56.735Z,6.47
2022-09-10T11:43:07.561Z,5.13
2022-09-10T11:48:19.828Z,5.22
2022-09-10T11:53:26.329Z,5.70
2022-09-10T11:58:38.325Z,5.35
2022-09-10T12:04:09.388Z,6.00
2022-09-10T12:09:17.685Z,5.15
2022-09-10T12:14:23.365Z,6.60
2022-09-10T12:19:31.699Z,7.57
2022-09-10T12:24:55.161Z,6.82
2022-09-10T12:31:01.952Z,7.15
2022-09-10T12:36:10.413Z,7.45
2022-09-10T12:42:09.565Z,8.48
2022-09-10T12:47:41.922Z,8.00
2022-09-10T12:53:00.401Z,7.35
2022-09-10T12:58:14.863Z,6.63
2022-09-10T13:03:21.529Z,6.43
2022-09-10T13:08:31.261Z,6.43
2022-09-10T13:13:40.905Z,5.93
2022-09-10T13:18:47.236Z,5.47
2022-09-10T13:23:55.120Z,5.18
2022-09-10T13:29:05.997Z,4.93
2022-09-10T13:34:52.872Z,5.40
2022-09-10T13:40:33.977Z,5.30
2022-09-10T13:45:43.591Z,4.85
2022-09-10T13:50:54.544Z,4.95
2022-09-10T13:56:03.895Z,5.72
2022-09-10T14:01:09.767Z,5.35
2022-09-10T14:06:21.877Z,5.18
2022-09-10T14:11:31.036Z,5.82
2022-09-10T14:21:44.683Z,4.65
2022-09-10T14:27:18.733Z,4.17
2022-09-10T14:32:33.122Z,3.80
2022-09-10T14:37:39.356Z,4.93
2022-09-10T14:42:47.321Z,4.40
2022-09-10T14:47:54.644Z,4.50
2022-09-10T14:53:00.478Z,5.03
2022-09-10T14:58:07.675Z,5.15
2022-09-10T15:03:16.123Z,4.32
2022-09-10T15:08:22.270Z,5.00
2022-09-10T15:13:29.230Z,5.35
2022-09-10T15:18:35.071Z,5.22
2022-09-10T15:23:40.537Z,5.30
2022-09-10T15:28:47.637Z,5.63
2022-09-10T15:33:54.083Z,5.07
2022-09-10T15:39:00.794Z,5.20
2022-09-10T15:44:08.348Z,4.93
2022-09-10T15:49:14.649Z,5.15
2022-09-10T15:54:22.413Z,5.22
2022-09-10T15:59:30.921Z,5.85
2022-09-10T16:04:40.294Z,5.20
2022-09-10T16:09:48.883Z,5.95
2022-09-10T16:33:51.673Z,4.50
2022-09-10T16:39:02.574Z,4.80
2022-09-10T16:44:09.201Z,4.82
2022-09-10T16:49:20.164Z,5.13
2022-09-10T16:54:27.806Z,6.25
2022-09-10T16:59:35.542Z,5.53
2022-09-10T17:04:44.273Z,5.20
2022-09-10T17:09:50.959Z,7.17
2022-09-10T17:14:59.836Z,7.50
2022-09-10T17:20:09.571Z,7.63
2022-09-10T17:25:19.697Z,7.78
2022-09-10T17:33:31.368Z,8.68
2022-09-10T17:38:39.553Z,7.55
2022-09-10T17:43:46.103Z,7.95
2022-09-10T17:48:55.503Z,7.55
2022-09-10T17:54:03.577Z,8.18
2022-09-10T17:59:13.642Z,8.00
2022-09-10T18:04:22.436Z,7.63
2022-09-10T18:09:28.684Z,7.63
2022-09-10T18:14:35.108Z,7.53
2022-09-10T18:19:43.023Z,8.05
2022-09-10T18:24:50.116Z,8.32
2022-09-10T18:29:58.386Z,8.25
2022-09-10T18:35:11.125Z,7.35
2022-09-10T18:40:21.269Z,8.35
2022-09-10T18:45:28.741Z,8.15
2022-09-10T18:50:36.912Z,8.30
2022-09-10T18:55:43.973Z,9.47
2022-09-10T19:00:53.402Z,9.07
2022-09-10T19:06:11.058Z,7.93
2022-09-10T19:11:23.521Z,8.07
2022-09-10T19:16:34.482Z,8.15
2022-09-10T19:21:42.184Z,9.60
2022-09-10T19:26:49.130Z,8.77
2022-09-10T19:31:56.269Z,8.00
2022-09-10T19:37:07.764Z,7.90
2022-09-10T19:42:18.168Z,7.72
2022-09-10T19:47:25.420Z,6.85
2022-09-10T19:52:34.503Z,6.95
2022-09-10T19:57:42.485Z,6.40
2022-09-10T20:02:51.475Z,6.75
2022-09-10T20:07:59.870Z,7.40
2022-09-10T20:13:10.694Z,6.50
2022-09-10T20:18:24.128Z,5.88
2022-09-10T20:23:41.385Z,6.40
2022-09-10T20:28:56.203Z,6.28
2022-09-10T20:34:06.048Z,5.78
2022-09-10T20:39:18.784Z,6.50
2022-09-10T20:44:27.461Z,5.10
2022-09-10T20:49:35.288Z,6.35
2022-09-10T20:54:45.233Z,7.25
2022-09-10T20:59:55.270Z,6.95
2022-09-10T21:05:03.573Z,6.57
2022-09-10T21:10:13.439Z,9.00
2022-09-10T21:15:20.823Z,7.82
2022-09-10T21:20:28.663Z,7.15
2022-09-10T21:25:37.949Z,7.05
2022-09-10T21:30:45.460Z,7.65
2022-09-10T21:36:03.251Z,7.15
2022-09-10T21:41:16.475Z,8.10
2022-09-10T21:46:24.282Z,7.60
2022-09-10T21:51:30.675Z,7.07
2022-09-10T21:56:38.794Z,8.13
2022-09-10T22:01:47.182Z,7.67
2022-09-10T22:06:55.370Z,7.40
2022-09-10T22:12:04.457Z,7.13
2022-09-10T22:17:10.899Z,7.43
2022-09-10T22:22:17.358Z,6.90
2022-09-10T22:27:26.102Z,6.68
2022-09-10T22:32:34.417Z,5.63
2022-09-10T22:37:40.844Z,5.28
2022-09-10T22:42:48.614Z,5.43
2022-09-10T22:47:54.733Z,4.60
2022-09-10T22:53:01.600Z,4.95
2022-09-10T22:58:09.042Z,4.70
2022-09-10T23:03:15.335Z,4.50
2022-09-10T23:08:21.597Z,4.03
2022-09-10T23:13:29.059Z,4.60
2022-09-10T23:18:35.499Z,4.35
2022-09-10T23:23:41.613Z,5.13
2022-09-10T23:28:49.388Z,4.88
2022-09-10T23:33:57.716Z,5.10
2022-09-10T23:39:07.855Z,5.60
2022-09-10T23:44:15.387Z,5.68
2022-09-10T23:49:21.902Z,5.75
2022-09-10T23:54:29.880Z,5.15
2022-09-10T23:59:37.333Z,5.53
